Terminal Aerodrome Forecast
Issued by NWS St Louis, MO

Home | Current Version | Previous Version | Text Only | Print | Product List | Glossary On
Versions: 1 2 3 4 5 6 7 8 9 10 11 12 13 14 15 16 17 18 19 20 21 22 23 24 25 26
000
FTUS43 KLSX 162300
TAFSTL
TAF
KSTL 162328Z 1700/1806 VRB03KT P6SM SKC
     FM171200 14005KT P6SM BKN025
     FM171800 16005KT P6SM SCT035
     FM180000 VRB03KT P6SM SCT250=

USA.gov is the U.S. government's official web portal to all federal, state and local government web resources and services.